sensor_id;sensor_type;location;lat;lon;timestamp;P1;durP1;ratioP1;P2;durP2;ratioP2
58752;SDS011;44525;46.052;13.610;2023-02-28T00:00:20;12.57;;;7.82;;
58752;SDS011;44525;46.052;13.610;2023-02-28T00:02:47;10.30;;;7.00;;
58752;SDS011;44525;46.052;13.610;2023-02-28T00:05:14;13.05;;;7.55;;
58752;SDS011;44525;46.052;13.610;2023-02-28T00:07:41;11.35;;;7.95;;
58752;SDS011;44525;46.052;13.610;2023-02-28T00:10:07;9.75;;;7.35;;
58752;SDS011;44525;46.052;13.610;2023-02-28T00:12:35;13.27;;;7.90;;
58752;SDS011;44525;46.052;13.610;2023-02-28T00:15:02;13.18;;;8.02;;
58752;SDS011;44525;46.052;13.610;2023-02-28T00:17:30;12.48;;;8.10;;
58752;SDS011;44525;46.052;13.610;2023-02-28T00:19:55;12.32;;;7.97;;
58752;SDS011;44525;46.052;13.610;2023-02-28T00:22:22;11.55;;;7.75;;
58752;SDS011;44525;46.052;13.610;2023-02-28T00:24:47;14.60;;;9.05;;
58752;SDS011;44525;46.052;13.610;2023-02-28T00:27:13;11.18;;;8.32;;
58752;SDS011;44525;46.052;13.610;2023-02-28T00:29:39;11.02;;;7.45;;
58752;SDS011;44525;46.052;13.610;2023-02-28T00:32:05;11.35;;;7.47;;
58752;SDS011;44525;46.052;13.610;2023-02-28T00:34:31;11.40;;;7.25;;
58752;SDS011;44525;46.052;13.610;2023-02-28T00:37:02;10.68;;;7.57;;
58752;SDS011;44525;46.052;13.610;2023-02-28T00:39:31;11.55;;;7.97;;
58752;SDS011;44525;46.052;13.610;2023-02-28T00:41:57;12.05;;;7.93;;
58752;SDS011;44525;46.052;13.610;2023-02-28T00:44:23;12.10;;;7.70;;
58752;SDS011;44525;46.052;13.610;2023-02-28T00:46:48;12.00;;;7.82;;
58752;SDS011;44525;46.052;13.610;2023-02-28T00:49:14;12.45;;;7.88;;
58752;SDS011;44525;46.052;13.610;2023-02-28T00:51:39;10.93;;;7.38;;
58752;SDS011;44525;46.052;13.610;2023-02-28T00:54:04;11.23;;;7.70;;
58752;SDS011;44525;46.052;13.610;2023-02-28T00:56:30;10.43;;;7.47;;
58752;SDS011;44525;46.052;13.610;2023-02-28T00:58:55;9.73;;;6.95;;
58752;SDS011;44525;46.052;13.610;2023-02-28T01:01:21;11.80;;;7.55;;
58752;SDS011;44525;46.052;13.610;2023-02-28T01:03:46;10.20;;;6.68;;
58752;SDS011;44525;46.052;13.610;2023-02-28T01:06:11;11.65;;;7.25;;
58752;SDS011;44525;46.052;13.610;2023-02-28T01:08:37;11.80;;;7.35;;
58752;SDS011;44525;46.052;13.610;2023-02-28T01:11:12;13.50;;;7.78;;
58752;SDS011;44525;46.052;13.610;2023-02-28T01:13:39;9.98;;;6.75;;
58752;SDS011;44525;46.052;13.610;2023-02-28T01:16:05;11.75;;;7.40;;
58752;SDS011;44525;46.052;13.610;2023-02-28T01:18:31;13.30;;;7.70;;
58752;SDS011;44525;46.052;13.610;2023-02-28T01:20:57;11.70;;;7.93;;
58752;SDS011;44525;46.052;13.610;2023-02-28T01:23:22;12.18;;;7.47;;
58752;SDS011;44525;46.052;13.610;2023-02-28T01:25:49;14.30;;;8.35;;
58752;SDS011;44525;46.052;13.610;2023-02-28T01:28:15;11.73;;;7.40;;
58752;SDS011;44525;46.052;13.610;2023-02-28T01:30:40;12.55;;;7.82;;
58752;SDS011;44525;46.052;13.610;2023-02-28T01:33:06;13.27;;;8.52;;
58752;SDS011;44525;46.052;13.610;2023-02-28T01:35:32;12.45;;;7.60;;
58752;SDS011;44525;46.052;13.610;2023-02-28T01:37:58;11.93;;;7.82;;
58752;SDS011;44525;46.052;13.610;2023-02-28T01:40:24;12.27;;;7.72;;
58752;SDS011;44525;46.052;13.610;2023-02-28T01:42:49;11.82;;;7.75;;
58752;SDS011;44525;46.052;13.610;2023-02-28T01:45:19;12.00;;;7.57;;
58752;SDS011;44525;46.052;13.610;2023-02-28T01:48:03;9.90;;;7.20;;
58752;SDS011;44525;46.052;13.610;2023-02-28T01:50:34;12.10;;;7.65;;
58752;SDS011;44525;46.052;13.610;2023-02-28T01:53:04;14.13;;;8.23;;
58752;SDS011;44525;46.052;13.610;2023-02-28T01:55:35;14.18;;;8.27;;
58752;SDS011;44525;46.052;13.610;2023-02-28T01:58:02;12.20;;;7.53;;
58752;SDS011;44525;46.052;13.610;2023-02-28T02:00:30;13.43;;;8.05;;
58752;SDS011;44525;46.052;13.610;2023-02-28T02:02:57;14.90;;;7.97;;
58752;SDS011;44525;46.052;13.610;2023-02-28T02:05:26;11.65;;;7.90;;
58752;SDS011;44525;46.052;13.610;2023-02-28T02:07:56;14.55;;;8.32;;
58752;SDS011;44525;46.052;13.610;2023-02-28T02:10:36;14.02;;;8.07;;
58752;SDS011;44525;46.052;13.610;2023-02-28T02:18:53;13.75;;;8.32;;
58752;SDS011;44525;46.052;13.610;2023-02-28T02:29:16;13.82;;;7.63;;
58752;SDS011;44525;46.052;13.610;2023-02-28T02:32:07;15.55;;;8.23;;
58752;SDS011;44525;46.052;13.610;2023-02-28T02:47:55;13.20;;;7.90;;
58752;SDS011;44525;46.052;13.610;2023-02-28T02:50:32;12.80;;;7.35;;
58752;SDS011;44525;46.052;13.610;2023-02-28T02:53:02;15.07;;;9.00;;
58752;SDS011;44525;46.052;13.610;2023-02-28T02:55:31;12.95;;;8.02;;
58752;SDS011;44525;46.052;13.610;2023-02-28T02:58:03;12.80;;;8.10;;
58752;SDS011;44525;46.052;13.610;2023-02-28T03:00:40;11.57;;;7.97;;
58752;SDS011;44525;46.052;13.610;2023-02-28T03:03:11;12.52;;;8.90;;
58752;SDS011;44525;46.052;13.610;2023-02-28T03:05:41;13.70;;;8.25;;
58752;SDS011;44525;46.052;13.610;2023-02-28T03:08:11;13.88;;;8.40;;
58752;SDS011;44525;46.052;13.610;2023-02-28T03:10:37;12.52;;;8.20;;
58752;SDS011;44525;46.052;13.610;2023-02-28T03:16:11;16.02;;;8.55;;
58752;SDS011;44525;46.052;13.610;2023-02-28T03:21:36;12.75;;;9.10;;
58752;SDS011;44525;46.052;13.610;2023-02-28T03:24:10;13.43;;;8.43;;
58752;SDS011;44525;46.052;13.610;2023-02-28T03:26:41;14.50;;;8.85;;
58752;SDS011;44525;46.052;13.610;2023-02-28T03:29:19;14.15;;;8.75;;
58752;SDS011;44525;46.052;13.610;2023-02-28T03:32:04;14.48;;;8.30;;
58752;SDS011;44525;46.052;13.610;2023-02-28T03:34:50;14.85;;;8.57;;
58752;SDS011;44525;46.052;13.610;2023-02-28T03:39:55;16.27;;;9.32;;
58752;SDS011;44525;46.052;13.610;2023-02-28T03:42:25;12.45;;;8.00;;
58752;SDS011;44525;46.052;13.610;2023-02-28T03:44:57;18.33;;;9.13;;
58752;SDS011;44525;46.052;13.610;2023-02-28T03:50:01;13.07;;;8.63;;
58752;SDS011;44525;46.052;13.610;2023-02-28T03:52:34;17.15;;;9.15;;
58752;SDS011;44525;46.052;13.610;2023-02-28T03:55:06;14.43;;;8.55;;
58752;SDS011;44525;46.052;13.610;2023-02-28T03:57:51;14.57;;;9.15;;
58752;SDS011;44525;46.052;13.610;2023-02-28T04:00:19;17.50;;;8.75;;
58752;SDS011;44525;46.052;13.610;2023-02-28T04:02:50;15.48;;;9.38;;
58752;SDS011;44525;46.052;13.610;2023-02-28T04:05:17;13.43;;;8.57;;
58752;SDS011;44525;46.052;13.610;2023-02-28T04:07:44;13.90;;;8.95;;
58752;SDS011;44525;46.052;13.610;2023-02-28T04:10:09;15.70;;;9.63;;
58752;SDS011;44525;46.052;13.610;2023-02-28T04:12:36;13.50;;;8.60;;
58752;SDS011;44525;46.052;13.610;2023-02-28T04:15:01;19.10;;;9.93;;
58752;SDS011;44525;46.052;13.610;2023-02-28T04:17:27;14.27;;;9.13;;
58752;SDS011;44525;46.052;13.610;2023-02-28T04:19:52;20.75;;;9.23;;
58752;SDS011;44525;46.052;13.610;2023-02-28T04:22:18;16.55;;;9.80;;
58752;SDS011;44525;46.052;13.610;2023-02-28T04:24:44;15.02;;;10.05;;
58752;SDS011;44525;46.052;13.610;2023-02-28T04:27:09;16.30;;;9.23;;
58752;SDS011;44525;46.052;13.610;2023-02-28T04:29:35;13.55;;;9.25;;
58752;SDS011;44525;46.052;13.610;2023-02-28T04:32:01;14.63;;;9.70;;
58752;SDS011;44525;46.052;13.610;2023-02-28T04:34:28;15.50;;;9.50;;
58752;SDS011;44525;46.052;13.610;2023-02-28T04:36:55;16.30;;;9.73;;
58752;SDS011;44525;46.052;13.610;2023-02-28T04:39:22;16.75;;;9.50;;
58752;SDS011;44525;46.052;13.610;2023-02-28T04:41:48;15.23;;;9.73;;
58752;SDS011;44525;46.052;13.610;2023-02-28T04:44:14;16.85;;;10.05;;
58752;SDS011;44525;46.052;13.610;2023-02-28T04:46:40;18.92;;;10.68;;
58752;SDS011;44525;46.052;13.610;2023-02-28T04:49:06;19.02;;;10.07;;
58752;SDS011;44525;46.052;13.610;2023-02-28T04:51:31;15.90;;;9.75;;
58752;SDS011;44525;46.052;13.610;2023-02-28T04:53:57;14.70;;;8.75;;
58752;SDS011;44525;46.052;13.610;2023-02-28T04:56:23;16.55;;;9.13;;
58752;SDS011;44525;46.052;13.610;2023-02-28T04:58:48;15.15;;;8.68;;
58752;SDS011;44525;46.052;13.610;2023-02-28T05:03:46;16.67;;;9.68;;
58752;SDS011;44525;46.052;13.610;2023-02-28T05:06:11;15.25;;;9.32;;
58752;SDS011;44525;46.052;13.610;2023-02-28T05:08:37;16.33;;;10.13;;
58752;SDS011;44525;46.052;13.610;2023-02-28T05:11:03;17.67;;;9.73;;
58752;SDS011;44525;46.052;13.610;2023-02-28T05:13:31;16.30;;;10.15;;
58752;SDS011;44525;46.052;13.610;2023-02-28T05:15:56;17.63;;;10.32;;
58752;SDS011;44525;46.052;13.610;2023-02-28T05:18:21;14.43;;;9.35;;
58752;SDS011;44525;46.052;13.610;2023-02-28T05:20:47;15.57;;;9.15;;
58752;SDS011;44525;46.052;13.610;2023-02-28T05:23:12;19.23;;;9.40;;
58752;SDS011;44525;46.052;13.610;2023-02-28T05:25:39;18.83;;;10.82;;
58752;SDS011;44525;46.052;13.610;2023-02-28T05:28:05;15.82;;;9.65;;
58752;SDS011;44525;46.052;13.610;2023-02-28T05:30:31;18.73;;;10.55;;
58752;SDS011;44525;46.052;13.610;2023-02-28T05:32:57;16.38;;;9.63;;
58752;SDS011;44525;46.052;13.610;2023-02-28T05:35:26;16.08;;;10.18;;
58752;SDS011;44525;46.052;13.610;2023-02-28T05:37:51;18.67;;;10.93;;
58752;SDS011;44525;46.052;13.610;2023-02-28T05:40:17;15.23;;;9.40;;
58752;SDS011;44525;46.052;13.610;2023-02-28T05:42:45;20.73;;;10.35;;
58752;SDS011;44525;46.052;13.610;2023-02-28T05:45:11;18.58;;;10.05;;
58752;SDS011;44525;46.052;13.610;2023-02-28T05:47:36;20.48;;;10.52;;
58752;SDS011;44525;46.052;13.610;2023-02-28T05:50:02;20.48;;;11.27;;
58752;SDS011;44525;46.052;13.610;2023-02-28T05:52:28;20.02;;;10.60;;
58752;SDS011;44525;46.052;13.610;2023-02-28T05:54:55;18.38;;;10.35;;
58752;SDS011;44525;46.052;13.610;2023-02-28T05:57:20;17.73;;;9.88;;
58752;SDS011;44525;46.052;13.610;2023-02-28T05:59:46;20.50;;;10.95;;
58752;SDS011;44525;46.052;13.610;2023-02-28T06:02:12;18.67;;;9.70;;
58752;SDS011;44525;46.052;13.610;2023-02-28T06:04:39;17.55;;;10.05;;
58752;SDS011;44525;46.052;13.610;2023-02-28T06:07:05;20.10;;;11.35;;
58752;SDS011;44525;46.052;13.610;2023-02-28T06:09:31;19.85;;;11.45;;
58752;SDS011;44525;46.052;13.610;2023-02-28T06:11:57;19.25;;;10.93;;
58752;SDS011;44525;46.052;13.610;2023-02-28T06:14:23;20.27;;;10.70;;
58752;SDS011;44525;46.052;13.610;2023-02-28T06:16:49;21.88;;;11.25;;
58752;SDS011;44525;46.052;13.610;2023-02-28T06:19:14;20.52;;;11.75;;
58752;SDS011;44525;46.052;13.610;2023-02-28T06:21:40;17.75;;;10.40;;
58752;SDS011;44525;46.052;13.610;2023-02-28T06:24:06;20.52;;;11.13;;
58752;SDS011;44525;46.052;13.610;2023-02-28T06:26:31;18.73;;;10.65;;
58752;SDS011;44525;46.052;13.610;2023-02-28T06:28:57;20.63;;;11.52;;
58752;SDS011;44525;46.052;13.610;2023-02-28T06:31:22;17.83;;;9.57;;
58752;SDS011;44525;46.052;13.610;2023-02-28T06:33:50;22.90;;;10.30;;
58752;SDS011;44525;46.052;13.610;2023-02-28T06:36:16;18.48;;;11.60;;
58752;SDS011;44525;46.052;13.610;2023-02-28T06:38:42;22.73;;;11.77;;
58752;SDS011;44525;46.052;13.610;2023-02-28T06:41:08;19.10;;;10.70;;
58752;SDS011;44525;46.052;13.610;2023-02-28T06:43:38;17.80;;;10.73;;
58752;SDS011;44525;46.052;13.610;2023-02-28T06:46:06;20.23;;;11.02;;
58752;SDS011;44525;46.052;13.610;2023-02-28T06:48:33;24.25;;;11.45;;
58752;SDS011;44525;46.052;13.610;2023-02-28T06:51:07;19.88;;;11.82;;
58752;SDS011;44525;46.052;13.610;2023-02-28T06:53:34;21.15;;;11.23;;
58752;SDS011;44525;46.052;13.610;2023-02-28T06:56:03;22.63;;;13.27;;
58752;SDS011;44525;46.052;13.610;2023-02-28T06:58:32;20.92;;;10.93;;
58752;SDS011;44525;46.052;13.610;2023-02-28T07:00:58;21.25;;;11.00;;
58752;SDS011;44525;46.052;13.610;2023-02-28T07:03:24;20.95;;;11.40;;
58752;SDS011;44525;46.052;13.610;2023-02-28T07:05:49;16.63;;;10.30;;
58752;SDS011;44525;46.052;13.610;2023-02-28T07:08:15;19.90;;;11.20;;
58752;SDS011;44525;46.052;13.610;2023-02-28T07:10:41;18.73;;;10.32;;
58752;SDS011;44525;46.052;13.610;2023-02-28T07:13:07;18.80;;;10.63;;
58752;SDS011;44525;46.052;13.610;2023-02-28T07:15:33;20.13;;;11.32;;
58752;SDS011;44525;46.052;13.610;2023-02-28T07:18:00;23.02;;;10.68;;
58752;SDS011;44525;46.052;13.610;2023-02-28T07:20:25;18.80;;;10.43;;
58752;SDS011;44525;46.052;13.610;2023-02-28T07:22:51;18.00;;;10.57;;
58752;SDS011;44525;46.052;13.610;2023-02-28T07:25:24;19.40;;;11.40;;
58752;SDS011;44525;46.052;13.610;2023-02-28T07:27:51;23.00;;;12.38;;
58752;SDS011;44525;46.052;13.610;2023-02-28T07:30:16;23.00;;;12.68;;
58752;SDS011;44525;46.052;13.610;2023-02-28T07:32:42;20.15;;;11.25;;
58752;SDS011;44525;46.052;13.610;2023-02-28T07:35:08;18.25;;;10.60;;
58752;SDS011;44525;46.052;13.610;2023-02-28T07:37:33;19.48;;;10.10;;
58752;SDS011;44525;46.052;13.610;2023-02-28T07:40:05;22.75;;;11.10;;
58752;SDS011;44525;46.052;13.610;2023-02-28T07:42:36;19.58;;;10.48;;
58752;SDS011;44525;46.052;13.610;2023-02-28T07:45:03;17.88;;;9.88;;
58752;SDS011;44525;46.052;13.610;2023-02-28T07:47:30;19.70;;;11.40;;
58752;SDS011;44525;46.052;13.610;2023-02-28T07:49:55;20.98;;;10.02;;
58752;SDS011;44525;46.052;13.610;2023-02-28T07:52:21;16.52;;;9.07;;
58752;SDS011;44525;46.052;13.610;2023-02-28T07:54:48;17.98;;;9.63;;
58752;SDS011;44525;46.052;13.610;2023-02-28T07:57:14;18.15;;;9.90;;
58752;SDS011;44525;46.052;13.610;2023-02-28T07:59:39;18.55;;;9.75;;
58752;SDS011;44525;46.052;13.610;2023-02-28T08:02:05;17.38;;;9.07;;
58752;SDS011;44525;46.052;13.610;2023-02-28T08:04:33;16.83;;;9.27;;
58752;SDS011;44525;46.052;13.610;2023-02-28T08:06:58;16.50;;;9.18;;
58752;SDS011;44525;46.052;13.610;2023-02-28T08:09:24;17.73;;;9.15;;
58752;SDS011;44525;46.052;13.610;2023-02-28T08:11:49;17.02;;;9.57;;
58752;SDS011;44525;46.052;13.610;2023-02-28T08:14:14;15.57;;;9.15;;
58752;SDS011;44525;46.052;13.610;2023-02-28T08:16:40;15.68;;;9.52;;
58752;SDS011;44525;46.052;13.610;2023-02-28T08:19:06;15.07;;;8.60;;
58752;SDS011;44525;46.052;13.610;2023-02-28T08:21:31;14.77;;;9.85;;
58752;SDS011;44525;46.052;13.610;2023-02-28T08:23:57;16.02;;;9.13;;
58752;SDS011;44525;46.052;13.610;2023-02-28T08:26:23;15.00;;;8.65;;
58752;SDS011;44525;46.052;13.610;2023-02-28T08:28:48;17.75;;;9.48;;
58752;SDS011;44525;46.052;13.610;2023-02-28T08:31:15;17.00;;;9.23;;
58752;SDS011;44525;46.052;13.610;2023-02-28T08:33:41;15.45;;;9.07;;
58752;SDS011;44525;46.052;13.610;2023-02-28T08:36:09;16.50;;;8.73;;
58752;SDS011;44525;46.052;13.610;2023-02-28T08:38:35;16.02;;;8.80;;
58752;SDS011;44525;46.052;13.610;2023-02-28T08:41:03;15.15;;;9.20;;
58752;SDS011;44525;46.052;13.610;2023-02-28T08:43:32;20.88;;;9.25;;
58752;SDS011;44525;46.052;13.610;2023-02-28T08:45:58;17.00;;;8.80;;
58752;SDS011;44525;46.052;13.610;2023-02-28T08:48:24;16.80;;;9.23;;
58752;SDS011;44525;46.052;13.610;2023-02-28T08:51:12;20.95;;;9.90;;
58752;SDS011;44525;46.052;13.610;2023-02-28T08:53:43;21.10;;;10.07;;
58752;SDS011;44525;46.052;13.610;2023-02-28T08:56:10;17.05;;;9.60;;
58752;SDS011;44525;46.052;13.610;2023-02-28T08:58:37;17.17;;;9.35;;
58752;SDS011;44525;46.052;13.610;2023-02-28T09:03:36;13.87;;;7.60;;
58752;SDS011;44525;46.052;13.610;2023-02-28T09:06:02;16.50;;;8.77;;
58752;SDS011;44525;46.052;13.610;2023-02-28T09:08:28;15.98;;;9.35;;
58752;SDS011;44525;46.052;13.610;2023-02-28T09:10:55;11.68;;;7.78;;
58752;SDS011;44525;46.052;13.610;2023-02-28T09:13:22;14.63;;;7.93;;
58752;SDS011;44525;46.052;13.610;2023-02-28T09:15:48;14.10;;;8.30;;
58752;SDS011;44525;46.052;13.610;2023-02-28T09:18:13;16.17;;;8.27;;
58752;SDS011;44525;46.052;13.610;2023-02-28T09:20:40;13.35;;;8.02;;
58752;SDS011;44525;46.052;13.610;2023-02-28T09:23:07;14.30;;;8.07;;
58752;SDS011;44525;46.052;13.610;2023-02-28T09:25:33;17.40;;;9.23;;
58752;SDS011;44525;46.052;13.610;2023-02-28T09:27:59;16.13;;;8.48;;
58752;SDS011;44525;46.052;13.610;2023-02-28T09:30:24;17.00;;;9.50;;
58752;SDS011;44525;46.052;13.610;2023-02-28T09:32:50;12.52;;;7.97;;
58752;SDS011;44525;46.052;13.610;2023-02-28T09:35:18;18.45;;;10.52;;
58752;SDS011;44525;46.052;13.610;2023-02-28T09:37:50;20.55;;;10.55;;
58752;SDS011;44525;46.052;13.610;2023-02-28T09:40:17;18.38;;;10.90;;
58752;SDS011;44525;46.052;13.610;2023-02-28T09:42:47;13.85;;;8.25;;
58752;SDS011;44525;46.052;13.610;2023-02-28T09:45:33;15.27;;;7.78;;
58752;SDS011;44525;46.052;13.610;2023-02-28T09:48:03;15.90;;;8.88;;
58752;SDS011;44525;46.052;13.610;2023-02-28T09:50:36;16.15;;;8.93;;
58752;SDS011;44525;46.052;13.610;2023-02-28T09:53:11;15.73;;;8.73;;
58752;SDS011;44525;46.052;13.610;2023-02-28T09:55:45;17.63;;;8.80;;
58752;SDS011;44525;46.052;13.610;2023-02-28T09:58:23;16.45;;;9.88;;
58752;SDS011;44525;46.052;13.610;2023-02-28T10:03:50;15.25;;;8.80;;
58752;SDS011;44525;46.052;13.610;2023-02-28T10:06:44;16.33;;;8.57;;
58752;SDS011;44525;46.052;13.610;2023-02-28T10:12:11;13.20;;;8.02;;
58752;SDS011;44525;46.052;13.610;2023-02-28T10:14:39;18.02;;;9.05;;
58752;SDS011;44525;46.052;13.610;2023-02-28T10:17:11;16.80;;;8.32;;
58752;SDS011;44525;46.052;13.610;2023-02-28T10:19:56;15.15;;;8.57;;
58752;SDS011;44525;46.052;13.610;2023-02-28T10:22:37;15.40;;;8.03;;
58752;SDS011;44525;46.052;13.610;2023-02-28T10:25:20;21.88;;;8.73;;
58752;SDS011;44525;46.052;13.610;2023-02-28T10:27:47;14.18;;;9.18;;
58752;SDS011;44525;46.052;13.610;2023-02-28T10:30:12;16.13;;;8.57;;
58752;SDS011;44525;46.052;13.610;2023-02-28T10:32:44;16.23;;;8.93;;
58752;SDS011;44525;46.052;13.610;2023-02-28T10:37:43;16.90;;;8.13;;
58752;SDS011;44525;46.052;13.610;2023-02-28T10:40:33;12.35;;;7.65;;
58752;SDS011;44525;46.052;13.610;2023-02-28T10:45:56;15.52;;;8.10;;
58752;SDS011;44525;46.052;13.610;2023-02-28T10:48:41;15.02;;;8.85;;
58752;SDS011;44525;46.052;13.610;2023-02-28T10:51:10;14.93;;;9.40;;
58752;SDS011;44525;46.052;13.610;2023-02-28T10:53:47;15.45;;;8.18;;
58752;SDS011;44525;46.052;13.610;2023-02-28T10:56:18;19.92;;;9.20;;
58752;SDS011;44525;46.052;13.610;2023-02-28T11:09:56;15.38;;;8.60;;
58752;SDS011;44525;46.052;13.610;2023-02-28T11:12:26;18.10;;;9.18;;
58752;SDS011;44525;46.052;13.610;2023-02-28T11:14:58;16.38;;;9.18;;
58752;SDS011;44525;46.052;13.610;2023-02-28T11:17:32;16.42;;;9.60;;
58752;SDS011;44525;46.052;13.610;2023-02-28T11:20:03;16.98;;;9.43;;
58752;SDS011;44525;46.052;13.610;2023-02-28T11:22:32;16.80;;;9.07;;
58752;SDS011;44525;46.052;13.610;2023-02-28T11:25:06;17.38;;;9.43;;
58752;SDS011;44525;46.052;13.610;2023-02-28T11:27:45;17.05;;;9.98;;
58752;SDS011;44525;46.052;13.610;2023-02-28T11:30:33;22.40;;;10.30;;
58752;SDS011;44525;46.052;13.610;2023-02-28T11:35:51;17.13;;;9.60;;
58752;SDS011;44525;46.052;13.610;2023-02-28T11:38:21;16.55;;;9.52;;
58752;SDS011;44525;46.052;13.610;2023-02-28T11:41:02;16.83;;;9.63;;
58752;SDS011;44525;46.052;13.610;2023-02-28T11:46:33;17.92;;;9.85;;
58752;SDS011;44525;46.052;13.610;2023-02-28T12:14:21;18.70;;;9.98;;
58752;SDS011;44525;46.052;13.610;2023-02-28T12:16:44;14.38;;;8.00;;
58752;SDS011;44525;46.052;13.610;2023-02-28T12:21:52;13.98;;;8.07;;
58752;SDS011;44525;46.052;13.610;2023-02-28T12:27:15;15.50;;;8.27;;
58752;SDS011;44525;46.052;13.610;2023-02-28T12:32:30;14.63;;;8.75;;
58752;SDS011;44525;46.052;13.610;2023-02-28T12:35:11;14.10;;;7.53;;
58752;SDS011;44525;46.052;13.610;2023-02-28T12:37:44;11.88;;;7.10;;
58752;SDS011;44525;46.052;13.610;2023-02-28T12:40:20;10.57;;;6.57;;
58752;SDS011;44525;46.052;13.610;2023-02-28T12:42:48;12.60;;;7.07;;
58752;SDS011;44525;46.052;13.610;2023-02-28T12:48:15;11.77;;;6.80;;
58752;SDS011;44525;46.052;13.610;2023-02-28T12:51:01;13.82;;;7.18;;
58752;SDS011;44525;46.052;13.610;2023-02-28T12:59:27;10.32;;;6.57;;
58752;SDS011;44525;46.052;13.610;2023-02-28T13:04:45;13.10;;;6.90;;
58752;SDS011;44525;46.052;13.610;2023-02-28T13:10:02;11.35;;;6.95;;
58752;SDS011;44525;46.052;13.610;2023-02-28T13:12:32;10.60;;;6.18;;
58752;SDS011;44525;46.052;13.610;2023-02-28T13:15:06;9.73;;;6.15;;
58752;SDS011;44525;46.052;13.610;2023-02-28T13:17:40;11.45;;;6.60;;
58752;SDS011;44525;46.052;13.610;2023-02-28T13:20:14;10.90;;;6.40;;
58752;SDS011;44525;46.052;13.610;2023-02-28T13:22:46;11.57;;;6.82;;
58752;SDS011;44525;46.052;13.610;2023-02-28T13:27:48;9.68;;;6.65;;
58752;SDS011;44525;46.052;13.610;2023-02-28T13:38:43;12.15;;;6.90;;
58752;SDS011;44525;46.052;13.610;2023-02-28T13:46:31;11.60;;;7.15;;
58752;SDS011;44525;46.052;13.610;2023-02-28T14:06:03;13.07;;;6.55;;
58752;SDS011;44525;46.052;13.610;2023-02-28T14:08:34;11.45;;;7.00;;
58752;SDS011;44525;46.052;13.610;2023-02-28T14:11:05;12.75;;;6.45;;
58752;SDS011;44525;46.052;13.610;2023-02-28T14:16:13;11.63;;;6.72;;
58752;SDS011;44525;46.052;13.610;2023-02-28T14:19:00;12.65;;;7.03;;
58752;SDS011;44525;46.052;13.610;2023-02-28T14:21:36;13.50;;;7.60;;
58752;SDS011;44525;46.052;13.610;2023-02-28T14:30:26;13.10;;;7.45;;
58752;SDS011;44525;46.052;13.610;2023-02-28T14:38:42;16.10;;;6.85;;
58752;SDS011;44525;46.052;13.610;2023-02-28T14:41:22;13.65;;;7.07;;
58752;SDS011;44525;46.052;13.610;2023-02-28T14:43:51;16.67;;;8.48;;
58752;SDS011;44525;46.052;13.610;2023-02-28T14:46:27;19.45;;;9.57;;
58752;SDS011;44525;46.052;13.610;2023-02-28T14:48:59;22.65;;;12.27;;
58752;SDS011;44525;46.052;13.610;2023-02-28T14:51:25;29.08;;;14.43;;
58752;SDS011;44525;46.052;13.610;2023-02-28T14:53:52;26.88;;;14.18;;
58752;SDS011;44525;46.052;13.610;2023-02-28T14:56:26;17.75;;;9.55;;
58752;SDS011;44525;46.052;13.610;2023-02-28T14:58:57;19.83;;;11.43;;
58752;SDS011;44525;46.052;13.610;2023-02-28T15:01:23;17.38;;;8.60;;
58752;SDS011;44525;46.052;13.610;2023-02-28T15:03:56;21.17;;;11.60;;
58752;SDS011;44525;46.052;13.610;2023-02-28T15:06:28;18.65;;;11.07;;
58752;SDS011;44525;46.052;13.610;2023-02-28T15:09:14;15.93;;;8.18;;
58752;SDS011;44525;46.052;13.610;2023-02-28T15:11:41;14.85;;;9.30;;
58752;SDS011;44525;46.052;13.610;2023-02-28T15:14:17;17.13;;;10.05;;
58752;SDS011;44525;46.052;13.610;2023-02-28T15:16:45;23.15;;;13.05;;
58752;SDS011;44525;46.052;13.610;2023-02-28T15:21:47;18.75;;;10.02;;
58752;SDS011;44525;46.052;13.610;2023-02-28T15:24:16;13.70;;;7.95;;
58752;SDS011;44525;46.052;13.610;2023-02-28T15:26:56;15.27;;;8.82;;
58752;SDS011;44525;46.052;13.610;2023-02-28T15:29:25;14.65;;;9.05;;
58752;SDS011;44525;46.052;13.610;2023-02-28T15:31:58;17.52;;;9.48;;
58752;SDS011;44525;46.052;13.610;2023-02-28T15:34:34;21.85;;;11.90;;
58752;SDS011;44525;46.052;13.610;2023-02-28T15:37:01;20.10;;;10.77;;
58752;SDS011;44525;46.052;13.610;2023-02-28T15:39:27;14.20;;;8.15;;
58752;SDS011;44525;46.052;13.610;2023-02-28T15:42:16;14.85;;;7.50;;
58752;SDS011;44525;46.052;13.610;2023-02-28T15:44:44;11.38;;;7.13;;
58752;SDS011;44525;46.052;13.610;2023-02-28T15:47:19;15.13;;;8.45;;
58752;SDS011;44525;46.052;13.610;2023-02-28T15:50:05;15.45;;;8.82;;
58752;SDS011;44525;46.052;13.610;2023-02-28T15:52:38;16.10;;;7.70;;
58752;SDS011;44525;46.052;13.610;2023-02-28T15:55:16;12.65;;;7.55;;
58752;SDS011;44525;46.052;13.610;2023-02-28T15:57:45;12.60;;;7.65;;
58752;SDS011;44525;46.052;13.610;2023-02-28T16:00:19;12.43;;;6.93;;
58752;SDS011;44525;46.052;13.610;2023-02-28T16:02:47;12.85;;;7.13;;
58752;SDS011;44525;46.052;13.610;2023-02-28T16:07:52;11.70;;;7.55;;
58752;SDS011;44525;46.052;13.610;2023-02-28T16:10:20;16.38;;;8.38;;
58752;SDS011;44525;46.052;13.610;2023-02-28T16:12:46;15.15;;;7.95;;
58752;SDS011;44525;46.052;13.610;2023-02-28T16:17:43;10.57;;;7.07;;
58752;SDS011;44525;46.052;13.610;2023-02-28T16:20:16;18.63;;;10.45;;
58752;SDS011;44525;46.052;13.610;2023-02-28T16:22:43;13.15;;;7.60;;
58752;SDS011;44525;46.052;13.610;2023-02-28T16:25:15;16.83;;;8.23;;
58752;SDS011;44525;46.052;13.610;2023-02-28T16:27:44;17.63;;;9.48;;
58752;SDS011;44525;46.052;13.610;2023-02-28T16:30:19;15.75;;;8.00;;
58752;SDS011;44525;46.052;13.610;2023-02-28T16:32:47;14.18;;;8.70;;
58752;SDS011;44525;46.052;13.610;2023-02-28T16:35:14;13.77;;;7.88;;
58752;SDS011;44525;46.052;13.610;2023-02-28T16:37:40;12.50;;;7.50;;
58752;SDS011;44525;46.052;13.610;2023-02-28T16:40:07;14.23;;;7.70;;
58752;SDS011;44525;46.052;13.610;2023-02-28T16:42:38;15.25;;;9.30;;
58752;SDS011;44525;46.052;13.610;2023-02-28T16:45:04;12.85;;;8.32;;
58752;SDS011;44525;46.052;13.610;2023-02-28T16:47:30;14.20;;;8.77;;
58752;SDS011;44525;46.052;13.610;2023-02-28T16:49:57;15.25;;;9.13;;
58752;SDS011;44525;46.052;13.610;2023-02-28T16:52:23;15.05;;;9.68;;
58752;SDS011;44525;46.052;13.610;2023-02-28T16:54:48;18.25;;;10.25;;
58752;SDS011;44525;46.052;13.610;2023-02-28T16:57:17;14.93;;;8.80;;
58752;SDS011;44525;46.052;13.610;2023-02-28T16:59:46;20.85;;;13.00;;
58752;SDS011;44525;46.052;13.610;2023-02-28T17:02:13;15.90;;;9.20;;
58752;SDS011;44525;46.052;13.610;2023-02-28T17:04:40;14.90;;;9.80;;
58752;SDS011;44525;46.052;13.610;2023-02-28T17:07:08;19.45;;;10.10;;
58752;SDS011;44525;46.052;13.610;2023-02-28T17:09:37;15.40;;;8.73;;
58752;SDS011;44525;46.052;13.610;2023-02-28T17:12:03;14.57;;;9.18;;
58752;SDS011;44525;46.052;13.610;2023-02-28T17:14:28;30.05;;;14.82;;
58752;SDS011;44525;46.052;13.610;2023-02-28T17:16:53;17.85;;;10.02;;
58752;SDS011;44525;46.052;13.610;2023-02-28T17:19:19;18.65;;;10.13;;
58752;SDS011;44525;46.052;13.610;2023-02-28T17:21:45;16.80;;;9.73;;
58752;SDS011;44525;46.052;13.610;2023-02-28T17:24:11;18.23;;;9.20;;